createdAt,value
2022-12-04T00:01:52.626Z,99.90
2022-12-04T00:04:20.484Z,84.60
2022-12-04T00:06:48.315Z,99.90
2022-12-04T00:09:16.119Z,77.10
2022-12-04T00:11:43.966Z,72.50
2022-12-04T00:14:11.962Z,93.50
2022-12-04T00:16:41.206Z,70.00
2022-12-04T00:19:09.073Z,56.50
2022-12-04T00:21:36.923Z,45.60
2022-12-04T00:24:05.064Z,85.60
2022-12-04T00:26:32.923Z,51.70
2022-12-04T00:29:00.988Z,98.00
2022-12-04T00:31:29.883Z,99.90
2022-12-04T00:34:00.370Z,99.90
2022-12-04T00:36:29.246Z,99.90
2022-12-04T00:38:57.407Z,99.90
2022-12-04T00:41:26.025Z,99.90
2022-12-04T00:43:54.031Z,99.90
2022-12-04T00:46:22.278Z,99.90
2022-12-04T00:48:50.400Z,81.10
2022-12-04T00:51:20.714Z,99.90
2022-12-04T00:53:48.657Z,96.10
2022-12-04T00:56:18.814Z,99.40
2022-12-04T00:58:47.192Z,99.90
2022-12-04T01:01:16.026Z,99.90
2022-12-04T01:03:44.154Z,99.90
2022-12-04T01:06:19.961Z,99.90
2022-12-04T01:08:47.811Z,99.90
2022-12-04T01:11:15.632Z,99.90
2022-12-04T01:13:43.523Z,99.90
2022-12-04T01:16:16.394Z,99.90
2022-12-04T01:18:44.529Z,99.90
2022-12-04T01:21:13.032Z,99.90
2022-12-04T01:23:42.301Z,99.90
2022-12-04T01:26:10.129Z,99.90
2022-12-04T01:28:38.363Z,99.90
2022-12-04T01:31:07.583Z,99.90
2022-12-04T01:33:36.131Z,99.90
2022-12-04T01:36:05.249Z,99.90
2022-12-04T01:38:33.087Z,99.90
2022-12-04T01:41:02.433Z,99.90
2022-12-04T01:43:31.151Z,99.90
2022-12-04T01:45:59.661Z,99.90
2022-12-04T01:48:30.798Z,99.90
2022-12-04T01:51:02.126Z,99.90
2022-12-04T01:53:30.518Z,99.90
2022-12-04T01:55:58.548Z,99.90
2022-12-04T01:58:30.294Z,99.90
2022-12-04T02:01:03.767Z,99.90
2022-12-04T02:03:34.611Z,99.90
2022-12-04T02:06:02.454Z,99.90
2022-12-04T02:08:30.634Z,99.90
2022-12-04T02:11:03.580Z,99.90
2022-12-04T02:13:36.039Z,99.90
2022-12-04T02:16:10.572Z,99.90
2022-12-04T02:18:41.844Z,99.90
2022-12-04T02:21:11.690Z,99.90
2022-12-04T02:23:51.497Z,99.90
2022-12-04T02:26:37.368Z,99.90
2022-12-04T02:29:09.187Z,99.90
2022-12-04T02:31:40.498Z,99.90
2022-12-04T02:34:12.010Z,99.90
2022-12-04T02:36:44.075Z,99.90
2022-12-04T02:39:14.991Z,99.90
2022-12-04T02:41:44.828Z,99.90
2022-12-04T02:44:17.101Z,99.90
2022-12-04T02:46:46.042Z,99.90
2022-12-04T02:49:17.141Z,99.90
2022-12-04T02:51:45.999Z,99.90
2022-12-04T02:54:15.938Z,99.90
2022-12-04T02:56:44.964Z,99.90
2022-12-04T02:59:17.424Z,99.90
2022-12-04T03:01:48.293Z,99.90
2022-12-04T03:04:18.515Z,99.90
2022-12-04T03:06:48.393Z,99.90
2022-12-04T03:09:18.427Z,99.90
2022-12-04T03:11:48.189Z,99.90
2022-12-04T03:14:18.574Z,99.90
2022-12-04T03:16:48.133Z,99.90
2022-12-04T03:19:18.436Z,99.90
2022-12-04T03:21:49.151Z,99.90
2022-12-04T03:24:20.293Z,99.90
2022-12-04T03:26:49.079Z,99.90
2022-12-04T03:29:20.592Z,99.90
2022-12-04T03:31:50.182Z,99.90
2022-12-04T03:34:22.245Z,99.90
2022-12-04T03:36:52.715Z,99.90
2022-12-04T03:39:22.041Z,99.90
2022-12-04T03:41:55.707Z,99.90
2022-12-04T03:44:26.872Z,99.90
2022-12-04T03:46:56.292Z,99.90
2022-12-04T03:49:25.112Z,99.90
2022-12-04T03:51:56.040Z,99.90
2022-12-04T03:54:27.139Z,99.90
2022-12-04T03:56:56.831Z,99.90
2022-12-04T03:59:28.108Z,99.90
2022-12-04T04:01:57.379Z,99.90
2022-12-04T04:04:28.175Z,99.90
2022-12-04T04:06:58.209Z,99.90
2022-12-04T04:09:27.197Z,99.90
2022-12-04T04:11:58.102Z,99.90
2022-12-04T04:14:47.627Z,99.90
2022-12-04T04:17:38.699Z,99.90
2022-12-04T04:20:26.783Z,99.90
2022-12-04T04:23:13.850Z,99.90
2022-12-04T04:25:43.252Z,99.90
2022-12-04T04:28:25.925Z,99.90
2022-12-04T04:30:55.461Z,99.90
2022-12-04T04:33:23.477Z,99.90
2022-12-04T04:35:53.842Z,99.90
2022-12-04T04:38:25.169Z,99.90
2022-12-04T04:40:57.353Z,99.90
2022-12-04T04:43:26.873Z,96.10
2022-12-04T04:45:59.182Z,99.90
2022-12-04T04:48:29.230Z,99.90
2022-12-04T04:50:57.535Z,99.90
2022-12-04T04:53:28.473Z,99.90
2022-12-04T04:55:56.396Z,99.90
2022-12-04T04:58:24.223Z,99.90
2022-12-04T05:00:57.669Z,99.90
2022-12-04T05:03:26.972Z,99.90
2022-12-04T05:05:54.832Z,99.90
2022-12-04T05:08:22.696Z,99.90
2022-12-04T05:10:50.615Z,99.90
2022-12-04T05:13:19.154Z,99.90
2022-12-04T05:15:56.352Z,99.90
2022-12-04T05:18:24.316Z,99.90
2022-12-04T05:20:53.482Z,99.90
2022-12-04T05:23:21.660Z,99.90
2022-12-04T05:25:49.499Z,99.90
2022-12-04T05:28:17.436Z,97.10
2022-12-04T05:30:46.055Z,99.90
2022-12-04T05:33:13.904Z,87.60
2022-12-04T05:35:41.748Z,99.90
2022-12-04T05:38:10.971Z,91.50
2022-12-04T05:40:38.801Z,96.80
2022-12-04T05:43:06.591Z,96.70
2022-12-04T05:45:34.443Z,99.90
2022-12-04T05:48:02.256Z,93.60
2022-12-04T05:50:30.110Z,99.90
2022-12-04T05:52:57.965Z,99.90
2022-12-04T05:55:27.190Z,96.80
2022-12-04T05:57:55.005Z,96.90
2022-12-04T06:00:22.935Z,94.30
2022-12-04T06:02:50.868Z,99.90
2022-12-04T06:05:18.944Z,99.90
2022-12-04T06:07:46.930Z,86.00
2022-12-04T06:10:14.857Z,99.90
2022-12-04T06:12:44.072Z,99.90
2022-12-04T06:15:12.106Z,99.90
2022-12-04T06:17:39.916Z,91.40
2022-12-04T06:20:11.702Z,94.60
2022-12-04T06:22:39.688Z,99.90
2022-12-04T06:25:08.073Z,99.90
2022-12-04T06:27:35.934Z,88.10
2022-12-04T06:30:05.617Z,99.90
2022-12-04T06:32:33.436Z,99.90
2022-12-04T06:35:01.835Z,99.90
2022-12-04T06:37:29.687Z,99.30
2022-12-04T06:39:57.852Z,95.70
2022-12-04T06:42:25.824Z,99.30
2022-12-04T06:44:53.680Z,98.90
2022-12-04T06:47:22.894Z,93.50
2022-12-04T06:49:51.718Z,99.90
2022-12-04T06:52:19.614Z,99.90
2022-12-04T06:54:47.450Z,99.90
2022-12-04T06:57:15.303Z,95.10
2022-12-04T06:59:43.130Z,99.90
2022-12-04T07:02:11.886Z,99.90
2022-12-04T07:04:41.137Z,95.60
2022-12-04T07:07:09.420Z,99.90
2022-12-04T07:09:37.414Z,99.90
2022-12-04T07:12:05.503Z,79.30
2022-12-04T07:14:33.329Z,86.00
2022-12-04T07:17:01.286Z,92.10
2022-12-04T07:19:29.164Z,89.80
2022-12-04T07:21:58.394Z,99.90
2022-12-04T07:24:26.284Z,99.90
2022-12-04T07:26:54.115Z,99.90
2022-12-04T07:29:21.959Z,99.90
2022-12-04T07:31:49.824Z,99.90
2022-12-04T07:34:17.728Z,91.80
2022-12-04T07:36:45.555Z,99.90
2022-12-04T07:39:14.767Z,99.90
2022-12-04T07:41:42.620Z,99.90
2022-12-04T07:44:10.489Z,99.90
2022-12-04T07:46:38.377Z,99.90
2022-12-04T07:49:06.213Z,99.90
2022-12-04T07:51:34.109Z,99.90
2022-12-04T07:54:04.142Z,99.90
2022-12-04T07:56:34.700Z,95.70
2022-12-04T07:59:03.062Z,99.00
2022-12-04T08:01:31.036Z,99.90
2022-12-04T08:03:59.854Z,99.90
2022-12-04T08:06:28.925Z,99.90
2022-12-04T08:08:57.380Z,99.90
2022-12-04T08:11:26.162Z,96.80
2022-12-04T08:13:56.700Z,99.90
2022-12-04T08:16:25.041Z,96.00
2022-12-04T08:18:53.673Z,99.90
2022-12-04T08:21:22.435Z,99.90
2022-12-04T08:23:51.020Z,99.90
2022-12-04T08:26:19.184Z,99.90
2022-12-04T08:28:47.267Z,99.90
2022-12-04T08:31:17.811Z,99.90
2022-12-04T08:33:46.675Z,99.90
2022-12-04T08:36:15.612Z,99.90
2022-12-04T08:38:43.592Z,99.90
2022-12-04T08:41:12.772Z,99.90
2022-12-04T08:43:40.613Z,99.90
2022-12-04T08:46:09.168Z,99.90
2022-12-04T08:48:38.595Z,99.90
2022-12-04T08:51:08.159Z,99.90
2022-12-04T08:53:36.471Z,99.90
2022-12-04T08:56:04.862Z,99.90
2022-12-04T08:58:32.693Z,99.90
2022-12-04T09:01:04.965Z,97.20
2022-12-04T09:03:32.842Z,99.90
2022-12-04T09:06:02.537Z,69.00
2022-12-04T09:08:30.536Z,90.00
2022-12-04T09:11:03.161Z,99.90
2022-12-04T09:13:31.003Z,99.90
2022-12-04T09:15:58.947Z,94.70
2022-12-04T09:18:26.859Z,99.90
2022-12-04T09:20:58.077Z,97.90
2022-12-04T09:23:27.728Z,99.90
2022-12-04T09:25:55.587Z,89.90
2022-12-04T09:28:23.416Z,77.60
2022-12-04T09:30:58.770Z,92.50
2022-12-04T09:33:26.770Z,93.80
2022-12-04T09:35:54.878Z,70.30
2022-12-04T09:38:22.766Z,75.10
2022-12-04T09:40:56.060Z,91.60
2022-12-04T09:43:28.264Z,91.00
2022-12-04T09:45:59.909Z,61.60
2022-12-04T09:48:29.800Z,55.80
2022-12-04T09:50:57.816Z,40.10
2022-12-04T09:53:27.888Z,52.40
2022-12-04T09:56:00.015Z,59.30
2022-12-04T09:58:29.613Z,52.30
2022-12-04T10:00:57.753Z,32.30
2022-12-04T10:03:26.604Z,10.60
2022-12-04T10:05:58.936Z,55.00
2022-12-04T10:08:29.580Z,46.30
2022-12-04T10:11:04.642Z,32.30
2022-12-04T10:13:41.541Z,44.90
2022-12-04T10:16:12.208Z,47.80
2022-12-04T10:18:45.360Z,25.90
2022-12-04T10:21:21.248Z,44.50
2022-12-04T10:23:56.804Z,23.30
2022-12-04T10:26:29.334Z,26.00
2022-12-04T10:28:59.297Z,51.20
2022-12-04T10:31:27.512Z,19.00
2022-12-04T10:33:57.239Z,26.80
2022-12-04T10:36:26.167Z,1.00
2022-12-04T10:38:56.848Z,32.50
2022-12-04T10:41:30.121Z,15.20
2022-12-04T10:43:58.000Z,11.40
2022-12-04T10:46:27.439Z,21.20
2022-12-04T10:48:57.706Z,3.60
2022-12-04T10:51:25.528Z,9.40
2022-12-04T10:53:53.666Z,1.00
2022-12-04T10:56:22.485Z,1.00
2022-12-04T10:58:58.825Z,4.90
2022-12-04T11:01:27.289Z,1.00
2022-12-04T11:04:01.282Z,1.00
2022-12-04T11:06:29.755Z,1.00
2022-12-04T11:08:58.091Z,1.00
2022-12-04T11:11:27.837Z,8.10
2022-12-04T11:14:03.694Z,1.00
2022-12-04T11:16:34.090Z,1.00
2022-12-04T11:19:01.944Z,1.00
2022-12-04T11:21:30.709Z,1.00
2022-12-04T11:23:58.560Z,1.00
2022-12-04T11:26:33.683Z,1.00
2022-12-04T11:29:03.227Z,1.00
2022-12-04T11:31:31.646Z,1.00
2022-12-04T11:34:01.273Z,1.00
2022-12-04T11:36:30.167Z,1.00
2022-12-04T11:39:05.440Z,1.00
2022-12-04T11:41:33.645Z,1.00
2022-12-04T11:44:02.889Z,1.00
2022-12-04T11:46:31.878Z,1.00
2022-12-04T11:48:59.778Z,1.00
2022-12-04T11:51:35.935Z,1.00
2022-12-04T11:54:06.833Z,1.00
2022-12-04T11:56:35.892Z,1.00
2022-12-04T11:59:24.529Z,1.00
2022-12-04T12:01:58.805Z,1.00
2022-12-04T12:04:37.951Z,1.00
2022-12-04T12:07:11.852Z,1.00
2022-12-04T12:09:44.076Z,1.00
2022-12-04T12:12:15.347Z,1.00
2022-12-04T12:14:49.640Z,1.00
2022-12-04T12:17:23.946Z,1.00
2022-12-04T12:19:59.391Z,1.00
2022-12-04T12:22:34.335Z,1.00
2022-12-04T12:25:05.643Z,1.00
2022-12-04T12:27:42.345Z,1.00
2022-12-04T12:30:11.153Z,1.00
2022-12-04T12:32:45.457Z,1.00
2022-12-04T12:35:23.581Z,1.00
2022-12-04T12:37:53.635Z,1.00
2022-12-04T12:40:27.613Z,1.00
2022-12-04T12:42:58.779Z,1.00
2022-12-04T12:45:29.751Z,1.00
2022-12-04T12:48:01.849Z,1.00
2022-12-04T12:50:33.802Z,1.00
2022-12-04T12:53:04.566Z,1.00
2022-12-04T12:55:35.202Z,1.00
2022-12-04T12:58:10.285Z,1.00
2022-12-04T13:00:40.525Z,1.00
2022-12-04T13:03:19.682Z,1.00
2022-12-04T13:05:49.890Z,8.80
2022-12-04T13:08:21.102Z,1.00
2022-12-04T13:10:51.049Z,1.00
2022-12-04T13:13:21.403Z,1.00
2022-12-04T13:15:51.792Z,1.00
2022-12-04T13:18:24.037Z,1.00
2022-12-04T13:20:53.930Z,1.00
2022-12-04T13:23:27.686Z,1.00
2022-12-04T13:26:02.345Z,1.00
2022-12-04T13:28:38.085Z,1.00
2022-12-04T13:31:10.566Z,1.20
2022-12-04T13:33:53.658Z,1.00
2022-12-04T13:36:35.291Z,1.00
2022-12-04T13:39:13.830Z,1.00
2022-12-04T13:41:41.702Z,1.00
2022-12-04T13:44:14.425Z,4.90
2022-12-04T13:46:43.772Z,1.00
2022-12-04T13:49:25.160Z,1.00
2022-12-04T13:51:53.657Z,6.80
2022-12-04T13:54:32.108Z,1.00
2022-12-04T13:57:11.830Z,1.00
2022-12-04T13:59:40.194Z,21.10
2022-12-04T14:02:35.181Z,1.00
2022-12-04T14:05:05.754Z,1.00
2022-12-04T14:07:34.629Z,44.70
2022-12-04T14:10:04.916Z,1.70
2022-12-04T14:12:34.748Z,1.00
2022-12-04T14:15:04.185Z,22.90
2022-12-04T14:17:32.991Z,1.00
2022-12-04T14:20:07.248Z,7.00
2022-12-04T14:22:44.523Z,33.40
2022-12-04T14:25:26.924Z,1.00
2022-12-04T14:27:54.845Z,27.50
2022-12-04T14:30:24.655Z,12.40
2022-12-04T14:32:54.670Z,14.30
2022-12-04T14:35:24.162Z,21.00
2022-12-04T14:37:56.070Z,18.40
2022-12-04T14:40:25.248Z,36.90
2022-12-04T14:42:53.454Z,1.00
2022-12-04T14:45:35.337Z,1.00
2022-12-04T14:48:10.089Z,1.00
2022-12-04T14:50:43.410Z,1.00
2022-12-04T14:53:17.847Z,24.00
2022-12-04T14:55:52.047Z,1.00
2022-12-04T14:58:34.681Z,1.40
2022-12-04T15:01:03.294Z,1.00
2022-12-04T15:03:32.358Z,34.90
2022-12-04T15:06:03.742Z,1.00
2022-12-04T15:08:32.994Z,9.60
2022-12-04T15:11:18.077Z,1.00
2022-12-04T15:13:45.965Z,1.00
2022-12-04T15:16:17.217Z,1.00
2022-12-04T15:18:54.284Z,1.00
2022-12-04T15:21:22.552Z,1.00
2022-12-04T15:23:51.826Z,1.00
2022-12-04T15:26:21.677Z,32.40
2022-12-04T15:28:50.844Z,1.00
2022-12-04T15:31:20.050Z,2.20
2022-12-04T15:33:48.993Z,1.00
2022-12-04T15:36:19.151Z,1.00
2022-12-04T15:38:47.920Z,1.00
2022-12-04T15:41:29.665Z,1.00
2022-12-04T15:43:57.452Z,7.70
2022-12-04T15:46:26.595Z,26.50
2022-12-04T15:49:05.248Z,37.10
2022-12-04T15:51:33.249Z,2.00
2022-12-04T15:54:01.156Z,1.00
2022-12-04T15:56:30.374Z,11.20
2022-12-04T15:58:59.415Z,35.20
2022-12-04T16:01:27.530Z,6.50
2022-12-04T16:03:56.206Z,36.00
2022-12-04T16:06:25.376Z,1.00
2022-12-04T16:08:54.057Z,1.00
2022-12-04T16:11:39.577Z,22.70
2022-12-04T16:14:17.396Z,1.00
2022-12-04T16:16:46.217Z,61.40
2022-12-04T16:19:16.493Z,17.60
2022-12-04T16:21:44.539Z,20.30
2022-12-04T16:24:13.224Z,14.00
2022-12-04T16:26:41.168Z,3.90
2022-12-04T16:29:09.163Z,58.80
2022-12-04T16:31:39.259Z,1.00
2022-12-04T16:34:07.198Z,1.00
2022-12-04T16:36:35.020Z,23.10
2022-12-04T16:39:02.872Z,29.40
2022-12-04T16:41:30.728Z,37.70
2022-12-04T16:43:59.532Z,1.00
2022-12-04T16:46:28.669Z,5.00
2022-12-04T16:49:01.483Z,13.50
2022-12-04T16:51:32.221Z,25.60
2022-12-04T16:54:00.083Z,85.60
2022-12-04T16:56:27.874Z,60.60
2022-12-04T16:58:55.731Z,28.30
2022-12-04T17:01:25.144Z,34.70
2022-12-04T17:03:53.343Z,57.90
2022-12-04T17:06:22.717Z,73.30
2022-12-04T17:08:50.553Z,56.50
2022-12-04T17:11:18.625Z,96.40
2022-12-04T17:13:46.534Z,75.80
2022-12-04T17:16:17.656Z,74.40
2022-12-04T17:18:47.517Z,49.80
2022-12-04T17:21:15.536Z,46.30
2022-12-04T17:23:45.034Z,31.10
2022-12-04T17:26:14.039Z,80.20
2022-12-04T17:28:42.242Z,99.90
2022-12-04T17:31:13.816Z,81.40
2022-12-04T17:33:41.765Z,99.90
2022-12-04T17:36:10.313Z,92.00
2022-12-04T17:38:40.743Z,86.10
2022-12-04T17:41:10.898Z,86.30
2022-12-04T17:43:38.736Z,99.90
2022-12-04T17:46:09.633Z,70.80
2022-12-04T17:48:37.646Z,99.90
2022-12-04T17:51:06.882Z,84.80
2022-12-04T17:53:34.773Z,99.90
2022-12-04T17:56:03.455Z,99.90
2022-12-04T17:58:32.814Z,99.90
2022-12-04T18:01:04.903Z,99.90
2022-12-04T18:03:32.960Z,99.90
2022-12-04T18:06:01.440Z,99.90
2022-12-04T18:08:30.765Z,99.90
2022-12-04T18:10:58.644Z,99.90
2022-12-04T18:13:26.472Z,99.90
2022-12-04T18:15:55.716Z,99.90
2022-12-04T18:18:23.686Z,99.90
2022-12-04T18:21:01.172Z,99.90
2022-12-04T18:23:29.836Z,99.90
2022-12-04T18:25:57.783Z,99.90
2022-12-04T18:28:25.763Z,99.90
2022-12-04T18:30:55.026Z,99.90
2022-12-04T18:33:23.003Z,99.90
2022-12-04T18:35:54.874Z,99.90
2022-12-04T18:38:23.072Z,99.90
2022-12-04T18:40:51.218Z,99.90
2022-12-04T18:43:19.123Z,99.90
2022-12-04T18:45:47.176Z,99.90
2022-12-04T18:48:16.443Z,99.90
2022-12-04T18:50:44.481Z,99.90
2022-12-04T18:53:12.327Z,99.90
2022-12-04T18:55:40.130Z,99.90
2022-12-04T18:58:07.968Z,99.90
2022-12-04T19:00:35.880Z,99.90
2022-12-04T19:03:04.597Z,99.90
2022-12-04T19:05:33.813Z,99.90
2022-12-04T19:08:01.894Z,99.90
2022-12-04T19:10:30.277Z,99.90
2022-12-04T19:12:58.087Z,99.90
2022-12-04T19:15:25.947Z,99.90
2022-12-04T19:17:53.957Z,99.90
2022-12-04T19:20:21.790Z,99.90
2022-12-04T19:22:51.005Z,99.90
2022-12-04T19:25:18.827Z,99.90
2022-12-04T19:27:46.666Z,99.90
2022-12-04T19:30:14.850Z,99.90
2022-12-04T19:32:42.677Z,99.90
2022-12-04T19:35:10.550Z,99.90
2022-12-04T19:37:41.950Z,99.90
2022-12-04T19:40:13.737Z,99.90
2022-12-04T19:42:41.575Z,99.90
2022-12-04T19:45:09.853Z,99.90
2022-12-04T19:47:37.699Z,99.90
2022-12-04T19:50:06.104Z,99.90
2022-12-04T19:52:34.508Z,99.90
2022-12-04T19:55:02.304Z,99.90
2022-12-04T19:57:31.479Z,99.90
2022-12-04T20:00:00.158Z,99.90
2022-12-04T20:02:28.335Z,99.90
2022-12-04T20:04:56.205Z,99.90
2022-12-04T20:07:23.949Z,99.90
2022-12-04T20:09:52.723Z,99.90
2022-12-04T20:12:20.656Z,99.90
2022-12-04T20:14:49.925Z,99.90
2022-12-04T20:17:17.773Z,99.90
2022-12-04T20:19:45.660Z,99.90
2022-12-04T20:22:13.551Z,99.90
2022-12-04T20:24:41.441Z,99.90
2022-12-04T20:27:09.691Z,99.90
2022-12-04T20:29:37.563Z,99.90
2022-12-04T20:32:06.790Z,99.90
2022-12-04T20:34:38.795Z,99.90
2022-12-04T20:37:11.019Z,99.90
2022-12-04T20:39:38.925Z,99.90
2022-12-04T20:42:06.796Z,99.90
2022-12-04T20:44:34.638Z,99.90
2022-12-04T20:47:02.549Z,99.90
2022-12-04T20:49:31.659Z,99.90
2022-12-04T20:51:59.524Z,99.90
2022-12-04T20:54:27.242Z,99.90
2022-12-04T20:56:56.323Z,99.90
2022-12-04T20:59:25.202Z,99.90
2022-12-04T21:01:53.273Z,99.90
2022-12-04T21:04:21.058Z,99.90
2022-12-04T21:06:50.333Z,99.90
2022-12-04T21:09:20.349Z,99.90
2022-12-04T21:11:49.230Z,99.90
2022-12-04T21:14:35.100Z,99.90
2022-12-04T21:17:03.347Z,99.90
2022-12-04T21:19:32.153Z,99.90
2022-12-04T21:22:01.374Z,99.90
2022-12-04T21:24:30.361Z,99.90
2022-12-04T21:26:58.219Z,99.90
2022-12-04T21:29:26.045Z,99.90
2022-12-04T21:31:53.912Z,99.90
2022-12-04T21:34:21.757Z,99.90
2022-12-04T21:36:49.641Z,99.90
2022-12-04T21:39:19.774Z,99.90
2022-12-04T21:42:05.056Z,99.90
2022-12-04T21:44:32.964Z,99.90
2022-12-04T21:47:00.826Z,99.90
2022-12-04T21:49:28.781Z,99.90
2022-12-04T21:51:58.534Z,99.90
2022-12-04T21:54:28.686Z,99.90
2022-12-04T21:56:56.896Z,99.90
2022-12-04T21:59:25.277Z,99.90
2022-12-04T22:01:53.511Z,99.90
2022-12-04T22:04:21.800Z,99.90
2022-12-04T22:06:49.735Z,99.90
2022-12-04T22:09:17.858Z,99.90
2022-12-04T22:11:47.023Z,99.90
2022-12-04T22:14:14.905Z,99.90
2022-12-04T22:16:43.544Z,99.90
2022-12-04T22:19:12.179Z,99.90
2022-12-04T22:21:40.105Z,99.90
2022-12-04T22:24:08.505Z,99.90
2022-12-04T22:26:36.340Z,99.90
2022-12-04T22:29:27.072Z,99.90
2022-12-04T22:31:53.796Z,99.90
2022-12-04T22:34:21.769Z,99.90
2022-12-04T22:36:50.038Z,99.90
2022-12-04T22:39:18.021Z,99.90
2022-12-04T22:41:46.067Z,99.90
2022-12-04T22:44:15.284Z,99.90
2022-12-04T22:46:43.219Z,99.90
2022-12-04T22:49:11.161Z,99.90
2022-12-04T22:51:38.998Z,99.90
2022-12-04T22:54:08.045Z,99.90
2022-12-04T22:56:35.932Z,99.90
2022-12-04T22:59:03.791Z,99.90
2022-12-04T23:01:33.875Z,99.90
2022-12-04T23:04:02.426Z,99.90
2022-12-04T23:06:30.965Z,99.90
2022-12-04T23:09:00.054Z,99.90
2022-12-04T23:11:28.637Z,99.90
2022-12-04T23:13:57.258Z,99.90
2022-12-04T23:16:25.654Z,99.90
2022-12-04T23:18:54.881Z,99.90
2022-12-04T23:21:23.467Z,99.90
2022-12-04T23:23:52.550Z,99.90
2022-12-04T23:26:21.251Z,99.90
2022-12-04T23:28:49.089Z,99.90
2022-12-04T23:31:17.145Z,99.90
2022-12-04T23:33:45.174Z,99.90
2022-12-04T23:36:15.139Z,99.90
2022-12-04T23:38:43.584Z,99.90
2022-12-04T23:41:12.383Z,99.90
2022-12-04T23:43:40.617Z,99.90
2022-12-04T23:46:11.386Z,99.90
2022-12-04T23:48:40.036Z,99.90
2022-12-04T23:51:08.290Z,99.90
2022-12-04T23:53:37.515Z,99.90
2022-12-04T23:56:08.152Z,99.90
2022-12-04T23:58:36.619Z,99.90
